PWSweather.com
Personal Weather Stations
Station Observations
WARREN
Narre Warren , MelbourneAU

Narre Warren MelbourneAU

Lat: -38.0314269, Lon: 145.3160851

Elevation: 24

Station Type: Digiteck

http://www.aussiedownunder.net/

Latest ConditionsUpdated 10:30:03 AM GMT+10:10 Sunday, Oct 21, 2018
Currently Today's Max Today's Min Today's Average
Temperature 62.6°F17.0°C 64.0°F17.8°C 45.0°F7.2°C 51.6°F10.9°C
Dew Point 49.0°F9.4°C 53.0°F11.7°C 42.8°F6.0°C 47.4°F8.6°C
Winds 3.3 mph SE5.3 kmh SE 3.3 mph -5.3 kmh - - 0.6 mph 1.0 kmh
Wind Gusts 8.3 mph13.4 kmh 8.3 mph13.4 kmh - -
Humidity 61% 96% 61% 87%
Pressure 29.59 in1002.0 mb 29.60 in1002.4 mb 29.55 in1000.7 mb -
Hour Temp Dew Point Humidity Winds Wind Gusts Pressure Precip Precip Rate Daily Precip Total
10:30 AM 62.6°F17.0°C 49.0°F9.4°C 61% 3.3 mph SE5.3 kmh SE 8.3 mph13.4 kmh 29.59 in1002.0 mb 0.00 in0.0 mm 0.00 in0.0 mm 0.00 in0.0 mm
10:15 AM 63.5°F17.5°C 49.8°F9.9°C 61% 3.0 mph SSW4.8 kmh SSW 6.9 mph11.1 kmh 29.59 in1002.0 mb 0.00 in0.0 mm 0.00 in0.0 mm 0.00 in0.0 mm
10:00 AM 64.0°F17.8°C 50.8°F10.4°C 62% 2.8 mph S4.5 kmh S 7.6 mph12.2 kmh 29.59 in1002.0 mb 0.00 in0.0 mm 0.00 in0.0 mm 0.00 in0.0 mm
09:45 AM 61.9°F16.6°C 50.8°F10.4°C 67% 1.9 mph SSW3.1 kmh SSW 4.5 mph7.2 kmh 29.59 in1002.0 mb 0.00 in0.0 mm 0.00 in0.0 mm 0.00 in0.0 mm
09:30 AM 61.3°F16.3°C 50.3°F10.2°C 67% 2.1 mph SW3.4 kmh SW 6.0 mph9.7 kmh 29.59 in1002.0 mb 0.00 in0.0 mm 0.00 in0.0 mm 0.00 in0.0 mm
09:15 AM 63.3°F17.4°C 53.0°F11.7°C 69% 1.6 mph SW2.6 kmh SW 6.0 mph9.7 kmh 29.59 in1002.0 mb 0.00 in0.0 mm 0.00 in0.0 mm 0.00 in0.0 mm
09:00 AM 60.3°F15.7°C 50.1°F10.1°C 69% 1.1 mph WNW1.8 kmh WNW 4.5 mph7.2 kmh 29.60 in1002.4 mb 0.00 in0.0 mm 0.00 in0.0 mm 0.00 in0.0 mm
08:45 AM 60.4°F15.8°C 50.6°F10.3°C 70% 1.1 mph WNW1.8 kmh WNW 4.5 mph7.2 kmh 29.59 in1002.0 mb 0.00 in0.0 mm 0.00 in0.0 mm 0.00 in0.0 mm
08:30 AM 61.3°F16.3°C 52.3°F11.3°C 72% 0.9 mph NW1.4 kmh NW 3.8 mph6.1 kmh 29.59 in1002.0 mb 0.00 in0.0 mm 0.00 in0.0 mm 0.00 in0.0 mm
08:15 AM 59.7°F15.4°C 52.5°F11.4°C 77% 0.6 mph NW1.0 kmh NW 4.5 mph7.2 kmh 29.59 in1002.0 mb 0.00 in0.0 mm 0.00 in0.0 mm 0.00 in0.0 mm
08:00 AM 58.1°F14.5°C 52.0°F11.1°C 80% 0.7 mph WNW1.1 kmh WNW 3.8 mph6.1 kmh 29.59 in1002.0 mb 0.00 in0.0 mm 0.00 in0.0 mm 0.00 in0.0 mm
07:45 AM 56.8°F13.8°C 52.7°F11.5°C 86% 0.8 mph SSW1.3 kmh SSW 4.5 mph7.2 kmh 29.59 in1002.0 mb 0.00 in0.0 mm 0.00 in0.0 mm 0.00 in0.0 mm
07:30 AM 55.0°F12.8°C 51.2°F10.7°C 87% 0.3 mph NW0.5 kmh NW 3.1 mph5.0 kmh 29.59 in1002.0 mb 0.00 in0.0 mm 0.00 in0.0 mm 0.00 in0.0 mm
07:15 AM 53.4°F11.9°C 50.6°F10.3°C 90% 0.6 mph WNW1.0 kmh WNW 3.1 mph5.0 kmh 29.58 in1001.7 mb 0.00 in0.0 mm 0.00 in0.0 mm 0.00 in0.0 mm
07:00 AM 52.2°F11.2°C 49.9°F9.9°C 92% 0.1 mph NW0.2 kmh NW 1.6 mph2.6 kmh 29.58 in1001.7 mb 0.00 in0.0 mm 0.00 in0.0 mm 0.00 in0.0 mm
06:45 AM 51.3°F10.7°C 49.3°F9.6°C 93% 0.6 mph NNW1.0 kmh NNW 5.4 mph8.7 kmh 29.58 in1001.7 mb 0.00 in0.0 mm 0.00 in0.0 mm 0.00 in0.0 mm
06:30 AM 50.5°F10.3°C 48.9°F9.4°C 94% 0.1 mph SW0.2 kmh SW 3.1 mph5.0 kmh 29.57 in1001.4 mb 0.00 in0.0 mm 0.00 in0.0 mm 0.00 in0.0 mm
06:15 AM 49.8°F9.9°C 48.4°F9.1°C 95% 0.1 mph NW0.2 kmh NW 2.2 mph3.5 kmh 29.57 in1001.4 mb 0.00 in0.0 mm 0.00 in0.0 mm 0.00 in0.0 mm
06:00 AM 49.1°F9.5°C 47.7°F8.7°C 95% 0.5 mph WNW0.8 kmh WNW 3.1 mph5.0 kmh 29.57 in1001.4 mb 0.00 in0.0 mm 0.00 in0.0 mm 0.00 in0.0 mm
05:45 AM 48.7°F9.3°C 47.4°F8.6°C 95% 0.9 mph NW1.4 kmh NW 3.1 mph5.0 kmh 29.56 in1001.0 mb 0.00 in0.0 mm 0.00 in0.0 mm 0.00 in0.0 mm
05:30 AM 48.7°F9.3°C 47.4°F8.6°C 95% 0.4 mph NNW0.6 kmh NNW 3.8 mph6.1 kmh 29.56 in1001.0 mb 0.00 in0.0 mm 0.00 in0.0 mm 0.00 in0.0 mm
05:15 AM 48.7°F9.3°C 47.4°F8.6°C 95% 0.2 mph WNW0.3 kmh WNW 3.8 mph6.1 kmh 29.56 in1001.0 mb 0.00 in0.0 mm 0.00 in0.0 mm 0.00 in0.0 mm
05:00 AM 48.6°F9.2°C 47.2°F8.4°C 95% 0.5 mph NW0.8 kmh NW 3.1 mph5.0 kmh 29.56 in1001.0 mb 0.00 in0.0 mm 0.00 in0.0 mm 0.00 in0.0 mm
04:45 AM 48.4°F9.1°C 47.0°F8.3°C 95% 0.2 mph WSW0.3 kmh WSW 2.2 mph3.5 kmh 29.55 in1000.7 mb 0.00 in0.0 mm 0.00 in0.0 mm 0.00 in0.0 mm
04:30 AM 48.2°F9.0°C 46.8°F8.2°C 95% 0.4 mph WNW0.6 kmh WNW 2.2 mph3.5 kmh 29.56 in1001.0 mb 0.00 in0.0 mm 0.00 in0.0 mm 0.00 in0.0 mm
04:15 AM 47.8°F8.8°C 46.8°F8.2°C 96% 0.5 mph WNW0.8 kmh WNW 3.1 mph5.0 kmh 29.56 in1001.0 mb 0.00 in0.0 mm 0.00 in0.0 mm 0.00 in0.0 mm
04:00 AM 47.5°F8.6°C 46.4°F8.0°C 96% 1.1 mph NW1.8 kmh NW 3.8 mph6.1 kmh 29.55 in1000.7 mb 0.00 in0.0 mm 0.00 in0.0 mm 0.00 in0.0 mm
03:45 AM 46.8°F8.2°C 45.4°F7.4°C 95% 0.2 mph WNW0.3 kmh WNW 2.2 mph3.5 kmh 29.56 in1001.0 mb 0.00 in0.0 mm 0.00 in0.0 mm 0.00 in0.0 mm
03:30 AM 46.4°F8.0°C 45.0°F7.2°C 95% 0.1 mph NW0.2 kmh NW 2.2 mph3.5 kmh 29.56 in1001.0 mb 0.00 in0.0 mm 0.00 in0.0 mm 0.00 in0.0 mm
03:15 AM 47.1°F8.4°C 45.8°F7.7°C 95% 0.2 mph W0.3 kmh W 3.1 mph5.0 kmh 29.57 in1001.4 mb 0.00 in0.0 mm 0.00 in0.0 mm 0.00 in0.0 mm
03:00 AM 46.6°F8.1°C 45.2°F7.3°C 95% Calm Calm 2.2 mph3.5 kmh 29.56 in1001.0 mb 0.00 in0.0 mm 0.00 in0.0 mm 0.00 in0.0 mm
02:45 AM 45.0°F7.2°C 43.3°F6.3°C 94% Calm Calm 2.2 mph3.5 kmh 29.57 in1001.4 mb 0.00 in0.0 mm 0.00 in0.0 mm 0.00 in0.0 mm
02:30 AM 45.1°F7.3°C 43.2°F6.2°C 93% Calm Calm -- 29.57 in1001.4 mb 0.00 in0.0 mm 0.00 in0.0 mm 0.00 in0.0 mm
02:15 AM 45.9°F7.7°C 44.0°F6.7°C 93% 0.1 mph NW0.2 kmh NW 2.2 mph3.5 kmh 29.56 in1001.0 mb 0.00 in0.0 mm 0.00 in0.0 mm 0.00 in0.0 mm
02:00 AM 45.1°F7.3°C 43.0°F6.1°C 92% Calm Calm 0.7 mph1.1 kmh 29.57 in1001.4 mb 0.00 in0.0 mm 0.00 in0.0 mm 0.00 in0.0 mm
01:45 AM 45.0°F7.2°C 42.8°F6.0°C 92% Calm Calm -- 29.57 in1001.4 mb 0.00 in0.0 mm 0.00 in0.0 mm 0.00 in0.0 mm
01:30 AM 45.5°F7.5°C 43.3°F6.3°C 92% 0.1 mph ESE0.2 kmh ESE 0.7 mph1.1 kmh 29.57 in1001.4 mb 0.00 in0.0 mm 0.00 in0.0 mm 0.00 in0.0 mm
01:15 AM 45.7°F7.6°C 43.2°F6.2°C 91% Calm Calm -- 29.57 in1001.4 mb 0.00 in0.0 mm 0.00 in0.0 mm 0.00 in0.0 mm
01:00 AM 46.4°F8.0°C 43.6°F6.4°C 90% 0.1 mph SE0.2 kmh SE 1.6 mph2.6 kmh 29.57 in1001.4 mb 0.00 in0.0 mm 0.00 in0.0 mm 0.00 in0.0 mm
12:45 AM 46.2°F7.9°C 43.5°F6.4°C 90% Calm Calm 0.7 mph1.1 kmh 29.58 in1001.7 mb 0.00 in0.0 mm 0.00 in0.0 mm 0.00 in0.0 mm
12:30 AM 46.6°F8.1°C 43.5°F6.4°C 89% Calm Calm 0.7 mph1.1 kmh 29.58 in1001.7 mb 0.00 in0.0 mm 0.00 in0.0 mm 0.00 in0.0 mm
12:15 AM 47.5°F8.6°C 44.4°F6.9°C 89% Calm Calm 0.7 mph1.1 kmh 29.58 in1001.7 mb 0.00 in0.0 mm 0.00 in0.0 mm 0.00 in0.0 mm
12:00 AM 48.2°F9.0°C 44.8°F7.1°C 88% 0.1 mph WNW0.2 kmh WNW 1.6 mph2.6 kmh 29.59 in1002.0 mb 0.00 in0.0 mm 0.00 in0.0 mm 0.00 in0.0 mm